sensor_id;sensor_type;location;lat;lon;timestamp;P1;durP1;ratioP1;P2;durP2;ratioP2
6193;SDS011;3130;41.564;23.280;2024-03-23T00:54:13;4.77;;;4.37;;
6193;SDS011;3130;41.564;23.280;2024-03-23T00:56:40;3.87;;;3.07;;
6193;SDS011;3130;41.564;23.280;2024-03-23T00:59:07;4.53;;;3.80;;
6193;SDS011;3130;41.564;23.280;2024-03-23T01:01:33;4.20;;;3.80;;
6193;SDS011;3130;41.564;23.280;2024-03-23T01:04:01;5.50;;;4.30;;
6193;SDS011;3130;41.564;23.280;2024-03-23T01:06:30;3.83;;;3.53;;
6193;SDS011;3130;41.564;23.280;2024-03-23T01:08:57;4.13;;;3.40;;
6193;SDS011;3130;41.564;23.280;2024-03-23T01:11:23;4.60;;;4.10;;
6193;SDS011;3130;41.564;23.280;2024-03-23T01:13:50;4.37;;;3.73;;
6193;SDS011;3130;41.564;23.280;2024-03-23T01:16:20;4.37;;;3.97;;
6193;SDS011;3130;41.564;23.280;2024-03-23T01:18:47;4.03;;;3.73;;
6193;SDS011;3130;41.564;23.280;2024-03-23T01:21:13;4.23;;;3.67;;
6193;SDS011;3130;41.564;23.280;2024-03-23T01:23:42;7.20;;;4.00;;
6193;SDS011;3130;41.564;23.280;2024-03-23T01:26:08;4.30;;;3.97;;
6193;SDS011;3130;41.564;23.280;2024-03-23T01:28:36;4.97;;;3.73;;
6193;SDS011;3130;41.564;23.280;2024-03-23T01:31:02;3.63;;;3.33;;
6193;SDS011;3130;41.564;23.280;2024-03-23T01:33:29;3.53;;;3.23;;
6193;SDS011;3130;41.564;23.280;2024-03-23T01:35:56;5.53;;;3.83;;
6193;SDS011;3130;41.564;23.280;2024-03-23T01:38:23;4.33;;;3.87;;
6193;SDS011;3130;41.564;23.280;2024-03-23T01:40:51;5.07;;;4.57;;
6193;SDS011;3130;41.564;23.280;2024-03-23T01:43:23;5.70;;;3.73;;
6193;SDS011;3130;41.564;23.280;2024-03-23T01:45:49;5.30;;;4.03;;
6193;SDS011;3130;41.564;23.280;2024-03-23T01:48:19;6.70;;;3.80;;
6193;SDS011;3130;41.564;23.280;2024-03-23T01:50:45;4.30;;;3.73;;
6193;SDS011;3130;41.564;23.280;2024-03-23T01:53:13;5.23;;;4.10;;
6193;SDS011;3130;41.564;23.280;2024-03-23T01:55:42;4.73;;;4.23;;
6193;SDS011;3130;41.564;23.280;2024-03-23T01:58:11;4.97;;;4.00;;
6193;SDS011;3130;41.564;23.280;2024-03-23T02:00:37;4.93;;;4.43;;
6193;SDS011;3130;41.564;23.280;2024-03-23T02:05:49;5.20;;;4.70;;
6193;SDS011;3130;41.564;23.280;2024-03-23T02:08:17;4.93;;;4.50;;
6193;SDS011;3130;41.564;23.280;2024-03-23T02:10:43;6.53;;;4.43;;
6193;SDS011;3130;41.564;23.280;2024-03-23T02:13:13;5.33;;;4.60;;
6193;SDS011;3130;41.564;23.280;2024-03-23T02:15:40;5.00;;;4.50;;
6193;SDS011;3130;41.564;23.280;2024-03-23T02:18:07;5.17;;;4.57;;
6193;SDS011;3130;41.564;23.280;2024-03-23T02:20:34;6.77;;;5.17;;
6193;SDS011;3130;41.564;23.280;2024-03-23T02:23:03;4.43;;;4.03;;
6193;SDS011;3130;41.564;23.280;2024-03-23T02:25:31;4.43;;;4.00;;
6193;SDS011;3130;41.564;23.280;2024-03-23T02:27:59;4.37;;;3.97;;
6193;SDS011;3130;41.564;23.280;2024-03-23T02:30:25;4.90;;;3.90;;
6193;SDS011;3130;41.564;23.280;2024-03-23T02:32:53;7.47;;;4.40;;
6193;SDS011;3130;41.564;23.280;2024-03-23T02:35:19;6.20;;;5.27;;
6193;SDS011;3130;41.564;23.280;2024-03-23T02:37:46;5.20;;;4.70;;
6193;SDS011;3130;41.564;23.280;2024-03-23T02:40:15;6.57;;;4.70;;
6193;SDS011;3130;41.564;23.280;2024-03-23T02:42:43;4.70;;;4.23;;
6193;SDS011;3130;41.564;23.280;2024-03-23T02:45:09;5.40;;;4.70;;
6193;SDS011;3130;41.564;23.280;2024-03-23T02:47:36;5.47;;;4.97;;
6193;SDS011;3130;41.564;23.280;2024-03-23T02:50:03;7.00;;;4.63;;
6193;SDS011;3130;41.564;23.280;2024-03-23T02:52:31;6.47;;;4.57;;
6193;SDS011;3130;41.564;23.280;2024-03-23T02:54:57;5.10;;;4.53;;
6193;SDS011;3130;41.564;23.280;2024-03-23T02:57:26;5.77;;;4.40;;
6193;SDS011;3130;41.564;23.280;2024-03-23T02:59:53;5.10;;;4.60;;
6193;SDS011;3130;41.564;23.280;2024-03-23T03:02:20;6.27;;;4.53;;
6193;SDS011;3130;41.564;23.280;2024-03-23T03:04:47;4.93;;;4.43;;
6193;SDS011;3130;41.564;23.280;2024-03-23T03:07:14;5.03;;;4.37;;
6193;SDS011;3130;41.564;23.280;2024-03-23T03:09:41;5.73;;;4.77;;
6193;SDS011;3130;41.564;23.280;2024-03-23T03:12:08;6.10;;;4.27;;
6193;SDS011;3130;41.564;23.280;2024-03-23T03:14:36;5.43;;;4.93;;
6193;SDS011;3130;41.564;23.280;2024-03-23T03:17:04;6.83;;;4.77;;
6193;SDS011;3130;41.564;23.280;2024-03-23T03:19:30;5.50;;;4.87;;
6193;SDS011;3130;41.564;23.280;2024-03-23T03:21:58;7.00;;;4.77;;
6193;SDS011;3130;41.564;23.280;2024-03-23T03:24:24;5.90;;;4.70;;
6193;SDS011;3130;41.564;23.280;2024-03-23T03:26:52;5.33;;;4.73;;
6193;SDS011;3130;41.564;23.280;2024-03-23T03:29:18;5.67;;;4.13;;
6193;SDS011;3130;41.564;23.280;2024-03-23T03:31:47;7.10;;;4.53;;
6193;SDS011;3130;41.564;23.280;2024-03-23T03:34:15;5.70;;;5.20;;
6193;SDS011;3130;41.564;23.280;2024-03-23T03:36:42;5.43;;;4.30;;
6193;SDS011;3130;41.564;23.280;2024-03-23T03:39:09;4.83;;;4.33;;
6193;SDS011;3130;41.564;23.280;2024-03-23T03:41:37;5.00;;;4.50;;
6193;SDS011;3130;41.564;23.280;2024-03-23T03:44:05;6.00;;;5.30;;
6193;SDS011;3130;41.564;23.280;2024-03-23T03:46:31;5.43;;;4.83;;
6193;SDS011;3130;41.564;23.280;2024-03-23T03:49:01;4.60;;;4.20;;
6193;SDS011;3130;41.564;23.280;2024-03-23T03:51:27;4.27;;;3.87;;
6193;SDS011;3130;41.564;23.280;2024-03-23T03:53:54;4.73;;;4.23;;
6193;SDS011;3130;41.564;23.280;2024-03-23T03:56:21;6.17;;;4.90;;
6193;SDS011;3130;41.564;23.280;2024-03-23T03:58:48;5.97;;;4.93;;
6193;SDS011;3130;41.564;23.280;2024-03-23T04:01:15;5.53;;;4.73;;
6193;SDS011;3130;41.564;23.280;2024-03-23T04:03:42;6.03;;;5.37;;
6193;SDS011;3130;41.564;23.280;2024-03-23T04:06:10;5.30;;;4.80;;
6193;SDS011;3130;41.564;23.280;2024-03-23T04:08:38;5.90;;;5.30;;
6193;SDS011;3130;41.564;23.280;2024-03-23T04:11:04;6.27;;;5.67;;
6193;SDS011;3130;41.564;23.280;2024-03-23T04:13:31;7.73;;;4.47;;
6193;SDS011;3130;41.564;23.280;2024-03-23T04:15:59;6.40;;;5.10;;
6193;SDS011;3130;41.564;23.280;2024-03-23T04:18:26;7.00;;;5.90;;
6193;SDS011;3130;41.564;23.280;2024-03-23T04:20:53;5.67;;;5.13;;
6193;SDS011;3130;41.564;23.280;2024-03-23T04:23:21;5.70;;;5.13;;
6193;SDS011;3130;41.564;23.280;2024-03-23T04:25:48;6.13;;;5.23;;
6193;SDS011;3130;41.564;23.280;2024-03-23T04:28:17;7.73;;;5.13;;
6193;SDS011;3130;41.564;23.280;2024-03-23T04:30:43;8.70;;;6.00;;
6193;SDS011;3130;41.564;23.280;2024-03-23T04:33:11;6.00;;;5.40;;
6193;SDS011;3130;41.564;23.280;2024-03-23T04:35:37;7.03;;;5.27;;
6193;SDS011;3130;41.564;23.280;2024-03-23T04:38:04;8.23;;;5.53;;
6193;SDS011;3130;41.564;23.280;2024-03-23T04:40:33;9.17;;;6.17;;
6193;SDS011;3130;41.564;23.280;2024-03-23T04:43:01;6.67;;;5.80;;
6193;SDS011;3130;41.564;23.280;2024-03-23T04:45:29;6.70;;;5.80;;
6193;SDS011;3130;41.564;23.280;2024-03-23T04:47:57;7.00;;;5.57;;
6193;SDS011;3130;41.564;23.280;2024-03-23T04:50:24;6.47;;;5.33;;
6193;SDS011;3130;41.564;23.280;2024-03-23T04:52:52;5.40;;;4.90;;
6193;SDS011;3130;41.564;23.280;2024-03-23T04:55:18;7.30;;;5.90;;
6193;SDS011;3130;41.564;23.280;2024-03-23T04:57:49;6.13;;;4.70;;
6193;SDS011;3130;41.564;23.280;2024-03-23T05:00:15;8.63;;;5.87;;
6193;SDS011;3130;41.564;23.280;2024-03-23T05:02:44;6.73;;;5.37;;
6193;SDS011;3130;41.564;23.280;2024-03-23T05:05:12;6.63;;;4.30;;
6193;SDS011;3130;41.564;23.280;2024-03-23T05:07:39;8.40;;;5.27;;
6193;SDS011;3130;41.564;23.280;2024-03-23T05:10:08;6.20;;;4.67;;
6193;SDS011;3130;41.564;23.280;2024-03-23T05:12:35;7.47;;;4.63;;
6193;SDS011;3130;41.564;23.280;2024-03-23T05:15:05;6.30;;;5.43;;
6193;SDS011;3130;41.564;23.280;2024-03-23T05:17:32;6.97;;;4.87;;
6193;SDS011;3130;41.564;23.280;2024-03-23T05:19:59;7.20;;;5.70;;
6193;SDS011;3130;41.564;23.280;2024-03-23T05:22:26;9.37;;;5.70;;
6193;SDS011;3130;41.564;23.280;2024-03-23T05:24:53;7.07;;;5.60;;
6193;SDS011;3130;41.564;23.280;2024-03-23T05:27:19;8.50;;;6.60;;
6193;SDS011;3130;41.564;23.280;2024-03-23T05:29:47;8.23;;;6.77;;
6193;SDS011;3130;41.564;23.280;2024-03-23T05:32:16;8.67;;;6.47;;
6193;SDS011;3130;41.564;23.280;2024-03-23T05:34:44;9.60;;;7.00;;
6193;SDS011;3130;41.564;23.280;2024-03-23T05:37:10;10.30;;;8.30;;
6193;SDS011;3130;41.564;23.280;2024-03-23T05:39:37;12.87;;;9.03;;
6193;SDS011;3130;41.564;23.280;2024-03-23T05:42:03;15.70;;;9.80;;
6193;SDS011;3130;41.564;23.280;2024-03-23T05:44:31;9.17;;;7.13;;
6193;SDS011;3130;41.564;23.280;2024-03-23T05:46:57;7.63;;;6.70;;
6193;SDS011;3130;41.564;23.280;2024-03-23T05:49:26;7.70;;;6.37;;
6193;SDS011;3130;41.564;23.280;2024-03-23T05:51:52;6.37;;;5.60;;
6193;SDS011;3130;41.564;23.280;2024-03-23T05:54:20;5.77;;;5.17;;
6193;SDS011;3130;41.564;23.280;2024-03-23T05:56:48;6.83;;;5.60;;
6193;SDS011;3130;41.564;23.280;2024-03-23T05:59:15;6.37;;;5.67;;
6193;SDS011;3130;41.564;23.280;2024-03-23T06:01:42;8.47;;;6.13;;
6193;SDS011;3130;41.564;23.280;2024-03-23T06:04:09;7.03;;;4.80;;
6193;SDS011;3130;41.564;23.280;2024-03-23T06:06:37;5.53;;;4.83;;
6193;SDS011;3130;41.564;23.280;2024-03-23T06:09:03;7.60;;;5.97;;
6193;SDS011;3130;41.564;23.280;2024-03-23T06:11:31;6.07;;;5.47;;
6193;SDS011;3130;41.564;23.280;2024-03-23T06:13:57;8.43;;;6.47;;
6193;SDS011;3130;41.564;23.280;2024-03-23T06:16:24;6.47;;;5.57;;
6193;SDS011;3130;41.564;23.280;2024-03-23T06:18:52;7.27;;;5.73;;
6193;SDS011;3130;41.564;23.280;2024-03-23T06:21:20;6.73;;;6.03;;
6193;SDS011;3130;41.564;23.280;2024-03-23T06:23:47;6.50;;;5.33;;
6193;SDS011;3130;41.564;23.280;2024-03-23T06:26:20;8.37;;;6.17;;
6193;SDS011;3130;41.564;23.280;2024-03-23T06:28:46;7.87;;;5.97;;
6193;SDS011;3130;41.564;23.280;2024-03-23T06:31:14;8.67;;;6.50;;
6193;SDS011;3130;41.564;23.280;2024-03-23T06:33:40;9.33;;;7.30;;
6193;SDS011;3130;41.564;23.280;2024-03-23T06:36:09;11.40;;;5.53;;
6193;SDS011;3130;41.564;23.280;2024-03-23T06:38:36;9.07;;;6.17;;
6193;SDS011;3130;41.564;23.280;2024-03-23T06:41:05;6.70;;;5.77;;
6193;SDS011;3130;41.564;23.280;2024-03-23T06:43:31;8.20;;;6.00;;
6193;SDS011;3130;41.564;23.280;2024-03-23T06:45:58;11.43;;;6.37;;
6193;SDS011;3130;41.564;23.280;2024-03-23T06:48:25;7.67;;;6.97;;
6193;SDS011;3130;41.564;23.280;2024-03-23T06:50:55;9.43;;;7.57;;
6193;SDS011;3130;41.564;23.280;2024-03-23T06:53:22;8.60;;;6.17;;
6193;SDS011;3130;41.564;23.280;2024-03-23T06:55:50;7.57;;;6.73;;
6193;SDS011;3130;41.564;23.280;2024-03-23T06:58:19;13.40;;;10.80;;
6193;SDS011;3130;41.564;23.280;2024-03-23T07:00:47;15.43;;;10.27;;
6193;SDS011;3130;41.564;23.280;2024-03-23T07:03:14;17.73;;;12.10;;
6193;SDS011;3130;41.564;23.280;2024-03-23T07:05:41;15.17;;;9.60;;
6193;SDS011;3130;41.564;23.280;2024-03-23T07:08:08;13.60;;;9.37;;
6193;SDS011;3130;41.564;23.280;2024-03-23T07:10:37;10.37;;;7.10;;
6193;SDS011;3130;41.564;23.280;2024-03-23T07:13:05;11.77;;;9.00;;
6193;SDS011;3130;41.564;23.280;2024-03-23T07:15:34;9.33;;;6.67;;
6193;SDS011;3130;41.564;23.280;2024-03-23T07:18:00;4.53;;;3.57;;
6193;SDS011;3130;41.564;23.280;2024-03-23T07:20:28;8.27;;;5.43;;
6193;SDS011;3130;41.564;23.280;2024-03-23T07:22:55;8.17;;;5.87;;
6193;SDS011;3130;41.564;23.280;2024-03-23T07:25:24;7.40;;;4.57;;
6193;SDS011;3130;41.564;23.280;2024-03-23T07:27:53;7.40;;;4.90;;
6193;SDS011;3130;41.564;23.280;2024-03-23T07:30:20;7.37;;;4.43;;
6193;SDS011;3130;41.564;23.280;2024-03-23T07:32:48;7.65;;;4.95;;
6193;SDS011;3130;41.564;23.280;2024-03-23T07:35:16;5.93;;;4.78;;
6193;SDS011;3130;41.564;23.280;2024-03-23T07:37:42;5.88;;;4.65;;
6193;SDS011;3130;41.564;23.280;2024-03-23T07:40:10;5.07;;;4.10;;
6193;SDS011;3130;41.564;23.280;2024-03-23T07:42:37;8.45;;;4.55;;
6193;SDS011;3130;41.564;23.280;2024-03-23T07:45:05;7.32;;;4.95;;
6193;SDS011;3130;41.564;23.280;2024-03-23T07:47:32;4.68;;;3.30;;
6193;SDS011;3130;41.564;23.280;2024-03-23T07:50:01;4.47;;;4.03;;
6193;SDS011;3130;41.564;23.280;2024-03-23T07:52:28;5.05;;;3.63;;
6193;SDS011;3130;41.564;23.280;2024-03-23T07:54:55;4.38;;;3.03;;
6193;SDS011;3130;41.564;23.280;2024-03-23T07:57:22;5.70;;;5.05;;
6193;SDS011;3130;41.564;23.280;2024-03-23T07:59:50;4.10;;;3.65;;
6193;SDS011;3130;41.564;23.280;2024-03-23T08:02:17;6.22;;;4.32;;
6193;SDS011;3130;41.564;23.280;2024-03-23T08:04:45;6.10;;;4.30;;
6193;SDS011;3130;41.564;23.280;2024-03-23T08:07:12;5.65;;;4.07;;
6193;SDS011;3130;41.564;23.280;2024-03-23T08:09:40;3.92;;;3.42;;
6193;SDS011;3130;41.564;23.280;2024-03-23T08:12:06;4.88;;;4.22;;
6193;SDS011;3130;41.564;23.280;2024-03-23T08:14:34;5.00;;;4.50;;
6193;SDS011;3130;41.564;23.280;2024-03-23T08:17:00;6.28;;;4.20;;
6193;SDS011;3130;41.564;23.280;2024-03-23T08:19:27;5.93;;;5.13;;
6193;SDS011;3130;41.564;23.280;2024-03-23T08:21:54;5.32;;;4.82;;
6193;SDS011;3130;41.564;23.280;2024-03-23T08:24:22;5.10;;;4.30;;
6193;SDS011;3130;41.564;23.280;2024-03-23T08:26:49;7.55;;;5.18;;
6193;SDS011;3130;41.564;23.280;2024-03-23T08:29:16;5.63;;;5.03;;
6193;SDS011;3130;41.564;23.280;2024-03-23T08:31:43;5.47;;;4.97;;
6193;SDS011;3130;41.564;23.280;2024-03-23T08:34:10;10.15;;;7.10;;
6193;SDS011;3130;41.564;23.280;2024-03-23T08:36:37;6.83;;;5.00;;
6193;SDS011;3130;41.564;23.280;2024-03-23T08:39:04;7.97;;;5.70;;
6193;SDS011;3130;41.564;23.280;2024-03-23T08:41:33;9.47;;;4.87;;
6193;SDS011;3130;41.564;23.280;2024-03-23T08:44:00;8.73;;;5.60;;
6193;SDS011;3130;41.564;23.280;2024-03-23T08:46:26;6.07;;;4.93;;
6193;SDS011;3130;41.564;23.280;2024-03-23T08:48:54;6.93;;;5.67;;
6193;SDS011;3130;41.564;23.280;2024-03-23T08:51:20;6.60;;;5.07;;
6193;SDS011;3130;41.564;23.280;2024-03-23T08:53:48;7.23;;;6.00;;
6193;SDS011;3130;41.564;23.280;2024-03-23T08:56:17;8.77;;;5.33;;
6193;SDS011;3130;41.564;23.280;2024-03-23T08:58:46;6.63;;;5.07;;
6193;SDS011;3130;41.564;23.280;2024-03-23T09:01:13;7.40;;;6.17;;
6193;SDS011;3130;41.564;23.280;2024-03-23T09:03:40;7.13;;;6.17;;
6193;SDS011;3130;41.564;23.280;2024-03-23T09:06:07;7.87;;;6.20;;
6193;SDS011;3130;41.564;23.280;2024-03-23T09:08:35;6.27;;;5.47;;
6193;SDS011;3130;41.564;23.280;2024-03-23T09:11:03;8.07;;;6.37;;
6193;SDS011;3130;41.564;23.280;2024-03-23T09:13:32;8.40;;;6.37;;
6193;SDS011;3130;41.564;23.280;2024-03-23T09:16:00;7.00;;;5.57;;
6193;SDS011;3130;41.564;23.280;2024-03-23T09:20:57;8.70;;;6.63;;
6193;SDS011;3130;41.564;23.280;2024-03-23T09:23:24;7.00;;;6.30;;
6193;SDS011;3130;41.564;23.280;2024-03-23T09:25:50;9.90;;;6.00;;
6193;SDS011;3130;41.564;23.280;2024-03-23T09:28:18;17.97;;;10.17;;
6193;SDS011;3130;41.564;23.280;2024-03-23T09:30:47;7.77;;;5.63;;
6193;SDS011;3130;41.564;23.280;2024-03-23T09:33:16;8.87;;;7.07;;
6193;SDS011;3130;41.564;23.280;2024-03-23T09:35:43;7.93;;;6.40;;
6193;SDS011;3130;41.564;23.280;2024-03-23T09:38:11;6.73;;;6.00;;
6193;SDS011;3130;41.564;23.280;2024-03-23T09:40:40;8.33;;;6.43;;
6193;SDS011;3130;41.564;23.280;2024-03-23T09:43:08;8.17;;;6.80;;
6193;SDS011;3130;41.564;23.280;2024-03-23T09:45:36;8.77;;;6.30;;
6193;SDS011;3130;41.564;23.280;2024-03-23T09:48:06;7.20;;;5.97;;
6193;SDS011;3130;41.564;23.280;2024-03-23T09:50:37;9.80;;;6.03;;
6193;SDS011;3130;41.564;23.280;2024-03-23T09:53:05;8.50;;;6.87;;
6193;SDS011;3130;41.564;23.280;2024-03-23T09:55:32;7.37;;;6.03;;
6193;SDS011;3130;41.564;23.280;2024-03-23T09:58:00;7.40;;;6.03;;
6193;SDS011;3130;41.564;23.280;2024-03-23T10:00:27;6.63;;;5.57;;
6193;SDS011;3130;41.564;23.280;2024-03-23T10:02:55;5.03;;;4.57;;
6193;SDS011;3130;41.564;23.280;2024-03-23T10:05:23;8.97;;;5.50;;
6193;SDS011;3130;41.564;23.280;2024-03-23T10:07:54;7.33;;;6.30;;
6193;SDS011;3130;41.564;23.280;2024-03-23T10:10:24;6.27;;;5.43;;
6193;SDS011;3130;41.564;23.280;2024-03-23T10:12:52;9.00;;;7.10;;
6193;SDS011;3130;41.564;23.280;2024-03-23T10:15:19;6.97;;;6.27;;
6193;SDS011;3130;41.564;23.280;2024-03-23T10:17:47;7.30;;;6.00;;
6193;SDS011;3130;41.564;23.280;2024-03-23T10:20:13;6.87;;;6.27;;
6193;SDS011;3130;41.564;23.280;2024-03-23T10:22:48;7.10;;;5.40;;
6193;SDS011;3130;41.564;23.280;2024-03-23T10:25:22;10.03;;;5.60;;
6193;SDS011;3130;41.564;23.280;2024-03-23T10:27:58;8.23;;;5.33;;
6193;SDS011;3130;41.564;23.280;2024-03-23T10:30:25;5.50;;;4.97;;
6193;SDS011;3130;41.564;23.280;2024-03-23T10:32:55;5.83;;;5.23;;
6193;SDS011;3130;41.564;23.280;2024-03-23T10:35:36;7.60;;;5.77;;
6193;SDS011;3130;41.564;23.280;2024-03-23T10:38:10;7.90;;;6.80;;
6193;SDS011;3130;41.564;23.280;2024-03-23T10:40:39;7.37;;;6.17;;
6193;SDS011;3130;41.564;23.280;2024-03-23T10:43:10;8.33;;;6.07;;
6193;SDS011;3130;41.564;23.280;2024-03-23T10:45:40;7.47;;;5.80;;
6193;SDS011;3130;41.564;23.280;2024-03-23T10:48:09;9.70;;;6.53;;
6193;SDS011;3130;41.564;23.280;2024-03-23T10:50:35;6.13;;;5.13;;
6193;SDS011;3130;41.564;23.280;2024-03-23T10:53:06;7.80;;;7.00;;
6193;SDS011;3130;41.564;23.280;2024-03-23T10:55:42;7.57;;;5.63;;
6193;SDS011;3130;41.564;23.280;2024-03-23T10:58:17;6.27;;;5.60;;
6193;SDS011;3130;41.564;23.280;2024-03-23T11:00:47;6.90;;;5.13;;
6193;SDS011;3130;41.564;23.280;2024-03-23T11:03:30;7.10;;;5.57;;
6193;SDS011;3130;41.564;23.280;2024-03-23T11:05:58;9.10;;;5.03;;
6193;SDS011;3130;41.564;23.280;2024-03-23T11:08:38;5.57;;;4.47;;
6193;SDS011;3130;41.564;23.280;2024-03-23T11:11:13;5.97;;;4.83;;
6193;SDS011;3130;41.564;23.280;2024-03-23T11:13:43;5.97;;;5.33;;
6193;SDS011;3130;41.564;23.280;2024-03-23T11:16:13;6.17;;;5.57;;
6193;SDS011;3130;41.564;23.280;2024-03-23T11:18:42;9.10;;;5.57;;
6193;SDS011;3130;41.564;23.280;2024-03-23T11:21:09;6.20;;;5.60;;
6193;SDS011;3130;41.564;23.280;2024-03-23T11:23:37;5.80;;;4.90;;
6193;SDS011;3130;41.564;23.280;2024-03-23T11:26:06;9.70;;;6.20;;
6193;SDS011;3130;41.564;23.280;2024-03-23T11:28:36;8.33;;;5.47;;
6193;SDS011;3130;41.564;23.280;2024-03-23T11:31:09;6.07;;;5.10;;
6193;SDS011;3130;41.564;23.280;2024-03-23T11:33:37;6.10;;;4.70;;
6193;SDS011;3130;41.564;23.280;2024-03-23T11:36:04;6.40;;;5.33;;
6193;SDS011;3130;41.564;23.280;2024-03-23T11:38:32;5.87;;;5.17;;
6193;SDS011;3130;41.564;23.280;2024-03-23T11:41:02;5.90;;;5.30;;
6193;SDS011;3130;41.564;23.280;2024-03-23T11:43:30;7.30;;;5.30;;
6193;SDS011;3130;41.564;23.280;2024-03-23T11:45:58;8.50;;;5.30;;
6193;SDS011;3130;41.564;23.280;2024-03-23T11:48:28;7.73;;;5.67;;
6193;SDS011;3130;41.564;23.280;2024-03-23T11:50:56;6.53;;;4.27;;
6193;SDS011;3130;41.564;23.280;2024-03-23T11:53:24;6.63;;;5.00;;
6193;SDS011;3130;41.564;23.280;2024-03-23T11:55:53;5.83;;;5.27;;
6193;SDS011;3130;41.564;23.280;2024-03-23T11:58:22;6.17;;;4.90;;
6193;SDS011;3130;41.564;23.280;2024-03-23T12:00:50;5.77;;;5.03;;
6193;SDS011;3130;41.564;23.280;2024-03-23T12:03:19;7.37;;;5.20;;
6193;SDS011;3130;41.564;23.280;2024-03-23T12:05:47;6.40;;;4.50;;
6193;SDS011;3130;41.564;23.280;2024-03-23T12:08:18;6.03;;;5.27;;
6193;SDS011;3130;41.564;23.280;2024-03-23T12:10:47;6.20;;;5.60;;
6193;SDS011;3130;41.564;23.280;2024-03-23T12:13:17;6.03;;;5.07;;
6193;SDS011;3130;41.564;23.280;2024-03-23T12:15:44;8.03;;;4.70;;
6193;SDS011;3130;41.564;23.280;2024-03-23T12:18:12;6.10;;;4.47;;
6193;SDS011;3130;41.564;23.280;2024-03-23T12:20:40;8.07;;;4.67;;
6193;SDS011;3130;41.564;23.280;2024-03-23T12:23:08;5.73;;;4.90;;
6193;SDS011;3130;41.564;23.280;2024-03-23T12:25:36;5.73;;;4.50;;
6193;SDS011;3130;41.564;23.280;2024-03-23T12:28:04;5.90;;;5.07;;
6193;SDS011;3130;41.564;23.280;2024-03-23T12:30:32;5.77;;;4.53;;
6193;SDS011;3130;41.564;23.280;2024-03-23T12:33:03;6.63;;;4.37;;
6193;SDS011;3130;41.564;23.280;2024-03-23T12:35:29;6.90;;;5.70;;
6193;SDS011;3130;41.564;23.280;2024-03-23T12:37:58;6.60;;;5.40;;
6193;SDS011;3130;41.564;23.280;2024-03-23T12:40:24;6.17;;;4.90;;
6193;SDS011;3130;41.564;23.280;2024-03-23T12:42:52;4.80;;;4.13;;
6193;SDS011;3130;41.564;23.280;2024-03-23T12:45:18;5.17;;;4.17;;
6193;SDS011;3130;41.564;23.280;2024-03-23T12:47:45;5.50;;;4.07;;
6193;SDS011;3130;41.564;23.280;2024-03-23T12:50:11;4.93;;;4.43;;
6193;SDS011;3130;41.564;23.280;2024-03-23T12:52:39;6.10;;;5.13;;
6193;SDS011;3130;41.564;23.280;2024-03-23T12:55:07;7.00;;;5.13;;
6193;SDS011;3130;41.564;23.280;2024-03-23T12:57:34;4.60;;;4.20;;
6193;SDS011;3130;41.564;23.280;2024-03-23T13:00:01;5.20;;;4.70;;
6193;SDS011;3130;41.564;23.280;2024-03-23T13:02:29;5.87;;;4.00;;
6193;SDS011;3130;41.564;23.280;2024-03-23T13:04:56;5.37;;;3.80;;
6193;SDS011;3130;41.564;23.280;2024-03-23T13:07:23;5.90;;;4.90;;
6193;SDS011;3130;41.564;23.280;2024-03-23T13:09:50;4.90;;;4.27;;
6193;SDS011;3130;41.564;23.280;2024-03-23T13:12:19;6.97;;;4.77;;
6193;SDS011;3130;41.564;23.280;2024-03-23T13:14:46;4.47;;;3.53;;
6193;SDS011;3130;41.564;23.280;2024-03-23T13:17:13;5.50;;;4.60;;
6193;SDS011;3130;41.564;23.280;2024-03-23T13:19:41;5.67;;;4.13;;
6193;SDS011;3130;41.564;23.280;2024-03-23T13:22:09;4.87;;;4.17;;
6193;SDS011;3130;41.564;23.280;2024-03-23T13:24:36;6.67;;;4.67;;
6193;SDS011;3130;41.564;23.280;2024-03-23T13:27:04;5.87;;;4.53;;
6193;SDS011;3130;41.564;23.280;2024-03-23T13:29:34;5.13;;;4.70;;
6193;SDS011;3130;41.564;23.280;2024-03-23T13:32:03;7.17;;;6.00;;
6193;SDS011;3130;41.564;23.280;2024-03-23T13:34:29;5.00;;;4.47;;
6193;SDS011;3130;41.564;23.280;2024-03-23T13:36:58;4.73;;;3.97;;
6193;SDS011;3130;41.564;23.280;2024-03-23T13:39:25;6.27;;;5.07;;
6193;SDS011;3130;41.564;23.280;2024-03-23T13:41:53;8.13;;;4.97;;
6193;SDS011;3130;41.564;23.280;2024-03-23T13:44:20;4.67;;;3.90;;
6193;SDS011;3130;41.564;23.280;2024-03-23T13:46:49;4.37;;;3.80;;
6193;SDS011;3130;41.564;23.280;2024-03-23T13:49:24;4.73;;;3.87;;
6193;SDS011;3130;41.564;23.280;2024-03-23T13:51:53;4.60;;;3.90;;
6193;SDS011;3130;41.564;23.280;2024-03-23T13:54:19;6.53;;;4.17;;
6193;SDS011;3130;41.564;23.280;2024-03-23T13:56:48;4.93;;;4.17;;
6193;SDS011;3130;41.564;23.280;2024-03-23T13:59:14;4.33;;;3.43;;
6193;SDS011;3130;41.564;23.280;2024-03-23T14:01:42;5.50;;;4.03;;
6193;SDS011;3130;41.564;23.280;2024-03-23T14:04:10;5.40;;;4.47;;
6193;SDS011;3130;41.564;23.280;2024-03-23T14:06:37;5.47;;;4.13;;
6193;SDS011;3130;41.564;23.280;2024-03-23T14:09:04;6.77;;;4.53;;
6193;SDS011;3130;41.564;23.280;2024-03-23T14:11:34;4.93;;;3.77;;
6193;SDS011;3130;41.564;23.280;2024-03-23T14:14:00;5.47;;;4.30;;
6193;SDS011;3130;41.564;23.280;2024-03-23T14:16:28;7.05;;;6.00;;
6193;SDS011;3130;41.564;23.280;2024-03-23T14:18:55;5.77;;;4.17;;
6193;SDS011;3130;41.564;23.280;2024-03-23T14:21:24;5.30;;;4.50;;
6193;SDS011;3130;41.564;23.280;2024-03-23T14:23:50;5.37;;;4.43;;
6193;SDS011;3130;41.564;23.280;2024-03-23T14:26:19;4.60;;;3.60;;
6193;SDS011;3130;41.564;23.280;2024-03-23T14:28:45;5.33;;;3.70;;
6193;SDS011;3130;41.564;23.280;2024-03-23T14:31:12;4.07;;;3.67;;
6193;SDS011;3130;41.564;23.280;2024-03-23T14:33:39;4.63;;;3.93;;
6193;SDS011;3130;41.564;23.280;2024-03-23T14:36:11;5.27;;;4.50;;
6193;SDS011;3130;41.564;23.280;2024-03-23T14:38:39;6.10;;;4.43;;
6193;SDS011;3130;41.564;23.280;2024-03-23T14:41:07;5.07;;;3.90;;
6193;SDS011;3130;41.564;23.280;2024-03-23T14:43:33;4.43;;;4.03;;
6193;SDS011;3130;41.564;23.280;2024-03-23T14:46:10;4.83;;;4.43;;
6193;SDS011;3130;41.564;23.280;2024-03-23T14:48:38;4.70;;;4.10;;
6193;SDS011;3130;41.564;23.280;2024-03-23T14:51:06;4.97;;;4.47;;
6193;SDS011;3130;41.564;23.280;2024-03-23T14:53:33;9.50;;;7.97;;
6193;SDS011;3130;41.564;23.280;2024-03-23T14:56:02;5.97;;;4.33;;
6193;SDS011;3130;41.564;23.280;2024-03-23T14:58:29;6.80;;;4.37;;
6193;SDS011;3130;41.564;23.280;2024-03-23T15:01:00;4.70;;;4.30;;
6193;SDS011;3130;41.564;23.280;2024-03-23T15:03:27;6.50;;;4.57;;
6193;SDS011;3130;41.564;23.280;2024-03-23T15:05:55;10.93;;;7.17;;
6193;SDS011;3130;41.564;23.280;2024-03-23T15:08:22;5.30;;;4.23;;
6193;SDS011;3130;41.564;23.280;2024-03-23T15:10:50;12.77;;;8.40;;
6193;SDS011;3130;41.564;23.280;2024-03-23T15:13:18;6.70;;;5.30;;
6193;SDS011;3130;41.564;23.280;2024-03-23T15:15:48;4.30;;;3.77;;
6193;SDS011;3130;41.564;23.280;2024-03-23T15:18:14;5.40;;;4.50;;
6193;SDS011;3130;41.564;23.280;2024-03-23T15:20:47;9.27;;;5.47;;
6193;SDS011;3130;41.564;23.280;2024-03-23T15:23:17;5.13;;;4.63;;
6193;SDS011;3130;41.564;23.280;2024-03-23T15:25:45;7.73;;;5.10;;
6193;SDS011;3130;41.564;23.280;2024-03-23T15:28:11;6.60;;;4.00;;
6193;SDS011;3130;41.564;23.280;2024-03-23T15:30:40;7.87;;;4.53;;
6193;SDS011;3130;41.564;23.280;2024-03-23T15:33:06;8.30;;;6.53;;
6193;SDS011;3130;41.564;23.280;2024-03-23T15:35:34;11.40;;;6.93;;
6193;SDS011;3130;41.564;23.280;2024-03-23T15:38:00;8.47;;;6.13;;
6193;SDS011;3130;41.564;23.280;2024-03-23T15:40:29;9.17;;;6.40;;
6193;SDS011;3130;41.564;23.280;2024-03-23T15:42:55;7.57;;;5.00;;
6193;SDS011;3130;41.564;23.280;2024-03-23T15:45:22;6.57;;;4.40;;
6193;SDS011;3130;41.564;23.280;2024-03-23T15:47:50;8.63;;;5.67;;
6193;SDS011;3130;41.564;23.280;2024-03-23T15:50:18;7.97;;;6.50;;
6193;SDS011;3130;41.564;23.280;2024-03-23T15:52:44;9.97;;;6.87;;
6193;SDS011;3130;41.564;23.280;2024-03-23T15:55:12;8.83;;;7.03;;
6193;SDS011;3130;41.564;23.280;2024-03-23T15:57:38;7.90;;;5.97;;
6193;SDS011;3130;41.564;23.280;2024-03-23T16:00:07;10.47;;;7.20;;
6193;SDS011;3130;41.564;23.280;2024-03-23T16:02:35;8.33;;;6.23;;